Time;durP1;ratioP1;P1;durP2;ratioP2;P2;SDS_P1;SDS_P2;PMS_P1;PMS_P2;Temp;Humidity;BMP_temperature;BMP_pressure;BME280_temperature;BME280_humidity;BME280_pressure;Samples;Min_cycle;Max_cycle;Signal;HPM_P1;HPM_P2
2021/09/13 00:01:26;;;;;;;12.35;8.30;;;23.30;48.60;;;;;;4181427;28;20068;-58
2021/09/13 00:03:28;;;;;;;11.02;7.63;;;23.20;48.50;;;;;;4181187;28;20041;-57
2021/09/13 00:05:31;;;;;;;13.32;7.80;;;23.20;48.40;;;;;;4181453;28;20041;-58
2021/09/13 00:07:33;;;;;;;11.23;7.90;;;23.20;48.40;;;;;;4181439;28;20072;-57
2021/09/13 00:09:35;;;;;;;10.55;7.55;;;23.20;48.30;;;;;;4181394;28;20101;-57
2021/09/13 00:11:37;;;;;;;12.30;8.43;;;23.20;48.50;;;;;;4181278;28;20049;-58
2021/09/13 00:13:39;;;;;;;9.40;7.80;;;23.20;48.50;;;;;;4181226;28;20110;-58
2021/09/13 00:15:41;;;;;;;10.20;7.75;;;23.20;48.50;;;;;;4181319;28;20065;-57
2021/09/13 00:17:43;;;;;;;11.32;8.13;;;23.20;48.60;;;;;;4181353;28;20057;-57
2021/09/13 00:19:45;;;;;;;13.23;7.88;;;23.20;48.30;;;;;;4181168;28;20053;-58
2021/09/13 00:21:47;;;;;;;15.95;8.25;;;23.20;48.50;;;;;;4181193;28;20045;-58
2021/09/13 00:23:49;;;;;;;12.00;7.47;;;23.20;48.50;;;;;;4181875;28;20102;-58
2021/09/13 00:25:51;;;;;;;13.02;7.38;;;23.20;48.50;;;;;;4184371;28;20037;-56
2021/09/13 00:27:54;;;;;;;9.20;7.30;;;23.20;48.50;;;;;;4184330;28;20544;-56
2021/09/13 00:29:56;;;;;;;12.63;8.05;;;23.20;48.30;;;;;;4183968;28;20052;-55
2021/09/13 00:31:58;;;;;;;10.98;7.90;;;23.20;48.40;;;;;;4184225;28;20049;-57
2021/09/13 00:34:00;;;;;;;9.48;8.00;;;23.20;48.40;;;;;;4184037;28;20045;-54
2021/09/13 00:36:02;;;;;;;11.05;7.93;;;23.20;48.30;;;;;;4184170;28;20049;-55
2021/09/13 00:38:04;;;;;;;10.63;7.72;;;23.20;48.40;;;;;;4184307;28;20046;-57
2021/09/13 00:40:07;;;;;;;10.30;7.40;;;23.20;48.50;;;;;;4184067;28;20061;-57
2021/09/13 00:42:09;;;;;;;9.27;7.35;;;23.20;48.40;;;;;;4183732;28;20065;-56
2021/09/13 00:44:11;;;;;;;12.10;8.00;;;23.20;48.50;;;;;;4183926;28;20091;-56
2021/09/13 00:46:15;;;;;;;8.48;6.95;;;23.20;48.20;;;;;;4183802;28;20101;-57
2021/09/13 00:48:18;;;;;;;8.38;6.78;;;23.20;48.40;;;;;;4183903;28;20041;-56
2021/09/13 00:50:20;;;;;;;12.20;7.57;;;23.20;48.50;;;;;;4183940;28;20055;-56
2021/09/13 00:52:23;;;;;;;11.25;7.82;;;23.20;48.30;;;;;;4183992;28;20455;-57
2021/09/13 00:54:25;;;;;;;11.10;7.75;;;23.20;48.30;;;;;;4183714;28;20076;-57
2021/09/13 00:56:27;;;;;;;13.65;7.00;;;23.20;48.20;;;;;;4183806;28;20055;-55
2021/09/13 00:58:29;;;;;;;10.98;7.53;;;23.20;48.20;;;;;;4183698;28;20041;-55
2021/09/13 01:00:31;;;;;;;9.73;7.13;;;23.20;48.40;;;;;;4183614;28;20048;-55
2021/09/13 01:02:33;;;;;;;9.88;7.60;;;23.20;48.40;;;;;;4183731;28;20133;-55
2021/09/13 01:04:36;;;;;;;9.23;6.57;;;23.20;48.00;;;;;;4183722;28;20108;-56
2021/09/13 01:06:38;;;;;;;14.05;7.40;;;23.20;48.50;;;;;;4183530;28;20097;-55
2021/09/13 01:08:41;;;;;;;10.85;7.80;;;23.20;48.40;;;;;;4183631;28;20101;-54
2021/09/13 01:10:44;;;;;;;11.52;8.23;;;23.20;48.10;;;;;;4183549;28;20072;-55
2021/09/13 01:12:46;;;;;;;11.13;7.38;;;23.20;48.20;;;;;;4183471;28;20056;-54
2021/09/13 01:14:48;;;;;;;9.20;6.18;;;23.20;48.20;;;;;;4183537;28;20124;-53
2021/09/13 01:16:50;;;;;;;10.98;7.65;;;23.20;48.30;;;;;;4183271;28;20125;-53
2021/09/13 01:18:52;;;;;;;9.10;7.65;;;23.20;48.10;;;;;;4183470;28;20105;-51
2021/09/13 01:20:54;;;;;;;9.77;6.85;;;23.20;48.20;;;;;;4183269;28;20046;-54
2021/09/13 01:23:09;;;;;;;8.07;7.00;;;23.20;47.90;;;;;;4183193;28;20037;-55
2021/09/13 01:25:11;;;;;;;10.05;6.70;;;23.10;48.20;;;;;;4183320;28;20048;-55
2021/09/13 01:27:14;;;;;;;11.60;6.78;;;23.20;48.20;;;;;;4183078;28;20588;-54
2021/09/13 01:29:16;;;;;;;10.80;7.10;;;23.10;47.90;;;;;;4183164;28;20430;-56
2021/09/13 01:31:18;;;;;;;10.23;6.53;;;23.10;48.10;;;;;;4183330;28;20101;-55
2021/09/13 01:33:21;;;;;;;8.88;6.60;;;23.10;48.20;;;;;;4183263;28;20041;-54
2021/09/13 01:35:24;;;;;;;9.02;7.00;;;23.10;48.10;;;;;;4183078;28;20071;-54
2021/09/13 01:37:26;;;;;;;10.25;6.90;;;23.20;48.10;;;;;;4183185;28;20046;-55
2021/09/13 01:39:28;;;;;;;8.02;6.50;;;23.10;47.80;;;;;;4183138;28;20406;-56
2021/09/13 01:41:30;;;;;;;11.00;6.93;;;23.20;48.30;;;;;;4183048;28;20049;-55
2021/09/13 01:43:33;;;;;;;10.73;6.60;;;23.20;47.90;;;;;;4183146;28;20128;-55
2021/09/13 01:45:35;;;;;;;9.65;7.05;;;23.20;48.00;;;;;;4183080;28;20097;-54
2021/09/13 01:47:37;;;;;;;12.02;6.50;;;23.20;48.10;;;;;;4182867;28;20086;-54
2021/09/13 01:49:39;;;;;;;9.70;6.60;;;23.20;47.80;;;;;;4182904;28;20049;-54
2021/09/13 01:51:41;;;;;;;9.85;6.90;;;23.20;48.00;;;;;;4182941;28;20045;-55
2021/09/13 01:53:43;;;;;;;7.47;6.43;;;23.20;47.70;;;;;;4182827;28;20257;-55
2021/09/13 01:55:45;;;;;;;10.65;6.70;;;23.20;47.90;;;;;;4183073;28;20105;-55
2021/09/13 01:57:47;;;;;;;9.25;6.38;;;23.10;47.60;;;;;;4182756;28;20045;-55
2021/09/13 01:59:50;;;;;;;10.60;7.20;;;23.20;47.80;;;;;;4182741;28;20045;-53
2021/09/13 02:01:52;;;;;;;8.88;6.40;;;23.10;47.70;;;;;;4182732;28;20101;-55
2021/09/13 02:03:54;;;;;;;7.65;6.88;;;23.10;47.60;;;;;;4182766;28;20049;-55
2021/09/13 02:05:56;;;;;;;13.18;7.43;;;23.10;47.80;;;;;;4182899;28;20755;-56
2021/09/13 02:07:58;;;;;;;8.82;6.57;;;23.10;47.70;;;;;;4214981;28;20051;-55
2021/09/13 02:10:00;;;;;;;12.85;6.47;;;23.10;47.70;;;;;;4182689;28;20097;-56
2021/09/13 02:12:02;;;;;;;9.90;7.15;;;23.10;47.50;;;;;;4182549;28;20136;-55
2021/09/13 02:14:04;;;;;;;10.85;7.22;;;23.10;47.60;;;;;;4182549;28;20046;-57
2021/09/13 02:16:07;;;;;;;9.88;6.95;;;23.10;47.30;;;;;;4182335;28;20052;-57
2021/09/13 02:18:09;;;;;;;8.80;6.72;;;23.10;48.10;;;;;;4182727;28;20038;-57
2021/09/13 02:20:12;;;;;;;11.43;7.07;;;23.10;47.90;;;;;;4182363;28;20042;-58
2021/09/13 02:22:15;;;;;;;7.15;6.13;;;23.10;47.60;;;;;;4182443;28;20060;-58
2021/09/13 02:24:17;;;;;;;8.63;6.10;;;23.20;48.30;;;;;;4182282;28;20037;-58
2021/09/13 02:26:19;;;;;;;9.15;6.25;;;23.10;47.90;;;;;;4182368;28;20048;-58
2021/09/13 02:28:21;;;;;;;10.55;6.78;;;23.20;48.40;;;;;;4182270;28;20069;-56
2021/09/13 02:30:23;;;;;;;8.23;5.75;;;23.10;47.80;;;;;;4182415;28;20046;-56
2021/09/13 02:32:25;;;;;;;9.30;6.47;;;23.10;47.70;;;;;;4182280;28;20072;-56
2021/09/13 02:34:27;;;;;;;11.35;7.07;;;23.10;47.90;;;;;;4182113;28;20105;-53
2021/09/13 02:36:29;;;;;;;10.10;6.90;;;23.10;47.80;;;;;;4182214;28;20041;-53
2021/09/13 02:38:31;;;;;;;10.18;6.45;;;23.10;47.70;;;;;;4182169;28;20045;-55
2021/09/13 02:40:33;;;;;;;8.50;6.15;;;23.10;48.00;;;;;;4193154;28;20037;-53
2021/09/13 02:42:36;;;;;;;10.65;6.55;;;23.20;47.70;;;;;;4198543;28;20041;-54
2021/09/13 02:44:38;;;;;;;9.13;6.28;;;23.10;47.70;;;;;;4198657;28;20055;-51
2021/09/13 02:46:40;;;;;;;10.57;6.63;;;23.10;47.60;;;;;;4197336;28;20046;-54
2021/09/13 02:48:42;;;;;;;8.65;6.35;;;23.10;47.40;;;;;;4198511;28;20072;-55
2021/09/13 02:50:44;;;;;;;9.13;7.13;;;23.10;47.60;;;;;;4198763;28;21077;-56
2021/09/13 02:52:46;;;;;;;8.15;6.15;;;23.10;47.20;;;;;;4198594;28;20037;-55
2021/09/13 02:54:48;;;;;;;11.75;6.32;;;23.10;47.30;;;;;;4198498;28;20041;-55
2021/09/13 02:56:50;;;;;;;10.02;7.00;;;23.10;47.80;;;;;;4198532;28;20052;-56
2021/09/13 02:58:52;;;;;;;7.57;6.07;;;23.10;47.60;;;;;;4198376;28;20101;-55
2021/09/13 03:00:54;;;;;;;12.82;6.93;;;23.10;47.20;;;;;;4198567;28;20654;-55
2021/09/13 03:02:56;;;;;;;9.40;6.70;;;23.10;47.60;;;;;;4198532;28;20566;-55
2021/09/13 03:04:58;;;;;;;7.57;6.25;;;23.10;47.40;;;;;;4198383;28;20041;-55
2021/09/13 03:07:00;;;;;;;6.93;5.57;;;23.10;47.30;;;;;;4198278;28;20068;-56
2021/09/13 03:09:02;;;;;;;8.90;5.97;;;23.10;47.20;;;;;;4198310;28;20093;-56
2021/09/13 03:11:04;;;;;;;8.00;6.72;;;23.00;47.40;;;;;;4198235;28;20100;-56
2021/09/13 03:13:06;;;;;;;9.75;6.95;;;23.10;47.70;;;;;;4198376;28;20044;-56
2021/09/13 03:15:09;;;;;;;14.73;6.97;;;23.10;48.10;;;;;;4198400;28;20055;-56
2021/09/13 03:17:11;;;;;;;14.77;7.35;;;23.10;48.00;;;;;;4198071;28;20112;-56
2021/09/13 03:19:13;;;;;;;10.25;7.35;;;23.00;47.90;;;;;;4198292;28;20075;-57
2021/09/13 03:21:19;;;;;;;10.98;6.75;;;23.10;48.10;;;;;;4198203;28;20045;-56
2021/09/13 03:23:21;;;;;;;11.93;7.95;;;23.10;47.60;;;;;;4198084;28;20047;-55
2021/09/13 03:25:24;;;;;;;12.10;7.85;;;23.10;47.40;;;;;;4197585;28;20650;-54
2021/09/13 03:27:26;;;;;;;9.85;7.55;;;23.00;46.90;;;;;;4198205;28;20063;-56
2021/09/13 03:29:28;;;;;;;10.77;7.40;;;23.00;46.90;;;;;;4198137;28;20043;-54
2021/09/13 03:31:30;;;;;;;12.18;7.88;;;23.00;47.70;;;;;;4198124;28;20096;-54
2021/09/13 03:33:33;;;;;;;14.18;7.60;;;23.00;47.50;;;;;;4198166;28;20052;-55
2021/09/13 03:35:35;;;;;;;14.98;8.18;;;23.00;47.60;;;;;;4198106;28;20100;-55
2021/09/13 03:37:37;;;;;;;12.50;7.82;;;23.00;47.60;;;;;;4198166;28;20052;-55
2021/09/13 03:39:39;;;;;;;17.15;8.52;;;23.10;47.00;;;;;;4198070;28;20105;-54
2021/09/13 03:41:41;;;;;;;9.88;7.28;;;23.00;46.80;;;;;;4197903;28;20044;-54
2021/09/13 03:43:43;;;;;;;13.02;8.07;;;23.10;47.30;;;;;;4198084;28;20041;-54
2021/09/13 03:45:45;;;;;;;11.45;8.77;;;23.00;47.10;;;;;;4198060;28;20076;-53
2021/09/13 03:47:48;;;;;;;12.98;8.90;;;23.00;47.20;;;;;;4198080;28;20112;-55
2021/09/13 03:49:51;;;;;;;9.88;7.70;;;23.00;47.20;;;;;;4198043;28;20115;-55
2021/09/13 03:51:53;;;;;;;17.35;9.18;;;23.00;47.00;;;;;;4198005;28;20045;-55
2021/09/13 03:53:55;;;;;;;14.90;9.80;;;23.00;46.80;;;;;;4197861;28;20104;-53
2021/09/13 03:55:57;;;;;;;13.80;9.68;;;23.00;46.60;;;;;;4197889;28;20097;-57
2021/09/13 03:57:59;;;;;;;15.65;9.60;;;23.00;46.80;;;;;;4197986;28;20049;-57
2021/09/13 04:00:01;;;;;;;14.60;9.23;;;23.00;46.40;;;;;;4200811;28;20049;-57
2021/09/13 04:02:03;;;;;;;13.30;9.23;;;23.00;46.90;;;;;;4201130;28;20049;-56
2021/09/13 04:04:06;;;;;;;11.65;8.75;;;23.00;49.90;;;;;;4201008;28;20069;-56
2021/09/13 04:06:17;;;;;;;17.77;9.27;;;23.00;51.20;;;;;;4201107;28;20045;-57
2021/09/13 04:13:13;;;;;;;19.30;9.68;;;23.00;47.00;;;;;;4205877;28;20059;-56
2021/09/13 04:15:16;;;;;;;20.48;9.57;;;22.90;47.00;;;;;;4200913;28;20072;-55
2021/09/13 04:17:18;;;;;;;17.00;9.55;;;23.00;46.70;;;;;;4200817;28;20113;-56
2021/09/13 04:19:22;;;;;;;17.75;9.45;;;23.00;46.70;;;;;;4200949;28;20045;-55
2021/09/13 04:21:24;;;;;;;14.38;9.55;;;23.00;46.80;;;;;;4200826;28;20048;-53
2021/09/13 04:23:26;;;;;;;14.88;9.20;;;23.00;48.20;;;;;;4200952;28;20045;-54
2021/09/13 04:25:28;;;;;;;19.55;9.95;;;22.90;47.10;;;;;;4200747;28;20044;-55
2021/09/13 04:27:30;;;;;;;16.17;9.48;;;23.00;47.00;;;;;;4200810;28;20043;-55
2021/09/13 04:29:32;;;;;;;15.52;9.25;;;23.00;46.90;;;;;;4200662;28;20063;-56
2021/09/13 04:31:34;;;;;;;11.95;8.57;;;22.90;46.50;;;;;;4200538;28;20060;-54
2021/09/13 04:33:36;;;;;;;14.23;9.20;;;23.00;46.80;;;;;;4200758;28;20097;-52
2021/09/13 04:35:39;;;;;;;18.27;10.10;;;23.00;46.80;;;;;;4200621;28;20100;-55
2021/09/13 04:37:41;;;;;;;15.05;10.23;;;23.00;46.50;;;;;;4200501;28;20044;-56
2021/09/13 04:39:42;;;;;;;14.90;8.40;;;23.00;46.50;;;;;;4200617;28;20052;-56
2021/09/13 04:41:44;;;;;;;15.00;9.43;;;23.00;47.00;;;;;;4200457;28;20049;-55
2021/09/13 04:43:46;;;;;;;17.85;9.75;;;23.00;47.10;;;;;;4200688;28;20067;-55
2021/09/13 04:45:48;;;;;;;16.70;9.52;;;23.00;46.70;;;;;;4200662;28;20047;-55
2021/09/13 04:47:50;;;;;;;19.10;11.18;;;23.00;46.90;;;;;;4200446;28;20041;-55
2021/09/13 04:49:53;;;;;;;17.80;10.75;;;23.00;46.40;;;;;;4200450;28;20041;-55
2021/09/13 04:51:55;;;;;;;15.70;9.80;;;23.00;46.50;;;;;;4200385;28;20057;-54
2021/09/13 04:53:57;;;;;;;18.50;9.45;;;23.00;46.50;;;;;;4200392;28;20059;-53
2021/09/13 04:55:59;;;;;;;13.85;9.15;;;23.00;46.90;;;;;;4200465;28;20051;-55
2021/09/13 04:58:02;;;;;;;18.05;9.02;;;23.00;46.30;;;;;;4200264;28;20049;-54
2021/09/13 05:00:04;;;;;;;14.65;10.00;;;23.00;46.40;;;;;;4199336;28;20635;-54
2021/09/13 05:02:06;;;;;;;15.13;8.75;;;23.00;46.30;;;;;;4200227;28;20044;-54
2021/09/13 05:04:11;;;;;;;17.42;9.90;;;23.00;46.50;;;;;;4199230;28;20067;-54
2021/09/13 05:06:13;;;;;;;;;;;23.00;46.60;;;;;;4200692;28;20096;-55
2021/09/13 05:08:15;;;;;;;29.48;13.15;;;23.00;46.60;;;;;;4200375;28;19924;-59
2021/09/13 05:10:17;;;;;;;30.98;12.18;;;23.00;49.80;;;;;;4199738;28;20063;-59
2021/09/13 05:12:19;;;;;;;21.55;11.27;;;22.90;50.80;;;;;;4199975;28;20079;-59
2021/09/13 05:14:21;;;;;;;31.45;11.98;;;22.90;51.20;;;;;;4199995;28;20049;-59
2021/09/13 05:16:23;;;;;;;31.13;12.60;;;22.90;53.00;;;;;;4199930;28;20061;-59
2021/09/13 05:18:25;;;;;;;39.72;13.18;;;22.80;51.90;;;;;;4200022;28;20049;-59
2021/09/13 05:20:27;;;;;;;37.30;11.57;;;22.80;52.40;;;;;;4200071;28;20108;-59
2021/09/13 05:22:29;;;;;;;36.47;11.77;;;22.80;51.80;;;;;;4199959;28;20044;-59
2021/09/13 05:24:31;;;;;;;30.38;11.52;;;22.80;52.80;;;;;;4199994;28;20070;-59
2021/09/13 05:26:33;;;;;;;23.50;10.15;;;22.80;51.80;;;;;;4199950;28;20037;-59
2021/09/13 05:28:35;;;;;;;24.27;11.45;;;22.80;52.20;;;;;;4200216;28;20045;-59
2021/09/13 05:30:37;;;;;;;22.00;10.95;;;22.70;52.10;;;;;;4200157;28;20379;-59
2021/09/13 05:32:39;;;;;;;22.08;10.60;;;22.70;52.10;;;;;;4200057;28;20049;-60
2021/09/13 05:34:41;;;;;;;24.10;12.27;;;22.70;51.70;;;;;;4199883;28;20049;-59
2021/09/13 05:36:43;;;;;;;20.45;10.02;;;22.70;51.60;;;;;;4199504;28;20045;-59
2021/09/13 05:38:45;;;;;;;22.17;11.13;;;22.70;51.30;;;;;;4199721;28;20053;-59
2021/09/13 05:40:48;;;;;;;21.15;9.95;;;22.80;51.20;;;;;;4199704;28;20056;-59
2021/09/13 05:42:50;;;;;;;22.55;10.15;;;22.70;51.80;;;;;;4199695;28;20067;-59
2021/09/13 05:44:52;;;;;;;25.27;10.35;;;22.70;51.80;;;;;;4199668;28;20051;-58
2021/09/13 05:46:54;;;;;;;18.55;10.02;;;22.80;50.50;;;;;;4199551;28;20066;-50
2021/09/13 05:48:56;;;;;;;158.18;116.65;;;22.70;52.90;;;;;;4199591;28;20045;-51
2021/09/13 05:50:58;;;;;;;73.43;51.08;;;22.60;51.50;;;;;;4199832;28;20045;-54
2021/09/13 05:53:00;;;;;;;79.90;46.45;;;22.60;51.20;;;;;;4199738;28;20097;-54
2021/09/13 05:55:04;;;;;;;67.82;48.95;;;22.50;51.30;;;;;;4199397;28;20045;-55
2021/09/13 05:57:06;;;;;;;49.10;32.35;;;22.40;51.10;;;;;;4199385;28;20068;-53
2021/09/13 05:59:08;;;;;;;53.58;32.05;;;22.20;51.50;;;;;;4199318;28;20041;-57
2021/09/13 06:01:10;;;;;;;54.03;37.95;;;22.20;51.70;;;;;;4199473;28;20502;-57
2021/09/13 06:03:12;;;;;;;47.45;31.55;;;22.30;51.30;;;;;;4199586;28;20047;-58
2021/09/13 06:05:14;;;;;;;40.42;29.60;;;22.30;51.60;;;;;;4199206;28;20096;-60
2021/09/13 06:07:16;;;;;;;35.55;24.42;;;22.30;51.40;;;;;;4199189;28;20041;-60
2021/09/13 06:09:18;;;;;;;30.80;22.88;;;22.40;51.10;;;;;;4198889;28;20045;-61
2021/09/13 06:11:26;;;;;;;34.53;19.27;;;22.40;51.00;;;;;;4193922;28;20042;-60
2021/09/13 06:13:28;;;;;;;32.80;21.50;;;22.40;50.50;;;;;;4182614;28;20116;-62
2021/09/13 06:15:30;;;;;;;31.23;18.90;;;22.50;51.60;;;;;;4182396;28;20093;-57
2021/09/13 06:17:32;;;;;;;26.77;17.80;;;22.50;51.40;;;;;;4182546;28;20033;-59
2021/09/13 06:19:34;;;;;;;24.20;16.02;;;22.40;51.00;;;;;;4182471;28;20042;-59
2021/09/13 06:21:37;;;;;;;27.10;16.17;;;22.40;50.80;;;;;;4181549;28;20041;-58
2021/09/13 06:23:39;;;;;;;24.17;14.02;;;22.40;50.70;;;;;;4182318;28;20101;-58
2021/09/13 06:25:42;;;;;;;18.98;12.20;;;22.40;50.50;;;;;;4182397;28;20207;-57
2021/09/13 06:27:44;;;;;;;25.40;13.45;;;22.40;49.40;;;;;;4182370;28;20098;-49
2021/09/13 06:29:46;;;;;;;25.70;13.13;;;22.40;49.60;;;;;;4182448;28;20097;-50
2021/09/13 06:31:49;;;;;;;23.88;12.85;;;22.20;49.60;;;;;;4182277;28;20097;-52
2021/09/13 06:33:51;;;;;;;27.02;12.20;;;22.30;50.00;;;;;;4182325;28;20055;-50
2021/09/13 06:35:53;;;;;;;28.23;13.27;;;22.30;49.40;;;;;;4182200;28;20124;-52
2021/09/13 06:37:55;;;;;;;32.13;12.25;;;22.20;50.20;;;;;;4181298;28;20041;-52
2021/09/13 06:39:58;;;;;;;30.90;11.63;;;22.10;50.00;;;;;;4188033;28;20119;-54
2021/09/13 06:42:00;;;;;;;25.98;11.05;;;22.20;50.10;;;;;;4198541;28;20064;-57
2021/09/13 06:44:03;;;;;;;20.23;9.30;;;22.10;49.30;;;;;;4198699;28;20037;-57
2021/09/13 06:46:10;;;;;;;21.35;9.70;;;22.00;49.20;;;;;;4197679;28;20049;-55
2021/09/13 06:48:14;;;;;;;20.35;9.35;;;22.10;49.20;;;;;;4198691;28;20096;-51
2021/09/13 06:50:25;;;;;;;15.40;8.65;;;22.00;49.20;;;;;;4198565;28;20179;-52
2021/09/13 06:52:27;;;;;;;15.77;9.00;;;22.20;49.20;;;;;;4198612;28;20096;-50
2021/09/13 06:54:30;;;;;;;15.90;8.38;;;22.20;49.00;;;;;;4198538;28;20101;-49
2021/09/13 06:56:32;;;;;;;21.95;10.52;;;22.30;48.40;;;;;;4199441;28;20049;-55
2021/09/13 06:58:35;;;;;;;19.92;9.57;;;22.30;48.50;;;;;;4198732;28;20045;-52
2021/09/13 07:00:38;;;;;;;20.30;9.10;;;22.30;48.00;;;;;;4198946;28;20037;-46
2021/09/13 07:02:42;;;;;;;18.15;9.00;;;22.40;47.90;;;;;;4198751;28;20069;-46
2021/09/13 07:04:44;;;;;;;17.00;9.23;;;22.40;48.20;;;;;;4198665;28;20041;-46
2021/09/13 07:06:46;;;;;;;21.52;10.32;;;22.40;48.40;;;;;;4198642;28;20104;-47
2021/09/13 07:08:48;;;;;;;15.35;8.80;;;22.50;48.10;;;;;;4198722;28;20041;-47
2021/09/13 07:10:50;;;;;;;15.63;8.73;;;22.50;48.40;;;;;;4198633;28;20068;-47
2021/09/13 07:12:53;;;;;;;20.23;9.60;;;22.50;48.50;;;;;;4198779;28;20105;-47
2021/09/13 07:14:55;;;;;;;22.90;9.60;;;22.50;48.20;;;;;;4198622;28;20072;-49
2021/09/13 07:16:57;;;;;;;17.58;9.25;;;22.50;48.40;;;;;;4198289;28;20059;-51
2021/09/13 07:19:01;;;;;;;15.40;9.90;;;22.50;47.80;;;;;;4198645;28;20045;-49
2021/09/13 07:21:02;;;;;;;18.92;9.25;;;22.50;47.90;;;;;;4198340;28;20049;-50
2021/09/13 07:23:04;;;;;;;17.67;9.77;;;22.50;47.70;;;;;;4198398;28;20047;-48
2021/09/13 07:25:07;;;;;;;24.13;14.65;;;22.60;47.70;;;;;;4198335;28;20039;-50
2021/09/13 07:27:10;;;;;;;28.40;19.30;;;22.60;47.20;;;;;;4198845;28;20065;-59
2021/09/13 07:29:12;;;;;;;37.72;24.17;;;22.60;47.50;;;;;;4198495;28;20043;-59
2021/09/13 07:31:14;;;;;;;26.52;16.80;;;22.60;47.50;;;;;;4199248;28;20097;-59
2021/09/13 07:33:16;;;;;;;30.15;17.65;;;22.60;47.60;;;;;;4200980;28;20070;-59
2021/09/13 07:35:18;;;;;;;26.92;15.52;;;22.70;47.10;;;;;;4202762;28;20470;-58
2021/09/13 07:37:20;;;;;;;26.50;12.10;;;22.60;47.10;;;;;;4202752;28;20096;-58
2021/09/13 07:39:23;;;;;;;19.25;11.25;;;22.60;47.70;;;;;;4202643;28;20051;-58
2021/09/13 07:41:25;;;;;;;17.30;11.65;;;22.70;46.80;;;;;;4202673;28;20067;-58
2021/09/13 07:43:27;;;;;;;16.15;10.30;;;22.60;46.50;;;;;;4202506;28;20093;-58
2021/09/13 07:45:29;;;;;;;16.60;10.20;;;22.70;46.70;;;;;;4202503;28;20044;-58
2021/09/13 07:47:32;;;;;;;16.10;10.00;;;22.70;46.70;;;;;;4202486;28;20064;-58
2021/09/13 07:49:34;;;;;;;18.33;11.25;;;22.70;46.90;;;;;;4202509;28;20072;-57
2021/09/13 07:51:36;;;;;;;24.70;11.85;;;22.70;47.30;;;;;;4201778;28;20097;-53
2021/09/13 07:53:38;;;;;;;31.90;23.85;;;22.70;48.90;;;;;;4201127;28;20108;-53
2021/09/13 07:55:40;;;;;;;27.02;18.98;;;22.70;47.80;;;;;;4201382;28;20116;-62
2021/09/13 07:57:42;;;;;;;49.08;34.42;;;22.70;48.10;;;;;;4201377;28;20101;-55
2021/09/13 07:59:46;;;;;;;33.00;25.35;;;22.60;48.50;;;;;;4201361;28;20089;-54
2021/09/13 08:01:48;;;;;;;36.20;23.75;;;22.60;48.70;;;;;;4201206;28;20051;-55
2021/09/13 08:03:51;;;;;;;34.63;19.50;;;22.60;48.60;;;;;;4201124;28;20041;-55
2021/09/13 08:05:53;;;;;;;21.83;15.30;;;22.50;48.10;;;;;;4201108;28;20041;-55
2021/09/13 08:07:55;;;;;;;24.65;15.90;;;22.50;47.10;;;;;;4200994;28;20067;-56
2021/09/13 08:09:57;;;;;;;23.85;15.55;;;22.50;47.00;;;;;;4200984;28;20041;-56
2021/09/13 08:11:59;;;;;;;28.40;17.45;;;22.50;47.30;;;;;;4201128;28;20092;-57
2021/09/13 08:14:01;;;;;;;22.00;13.25;;;22.50;48.10;;;;;;4201021;28;20044;-57
2021/09/13 08:16:04;;;;;;;20.17;13.20;;;22.60;47.20;;;;;;4200806;28;20071;-56
2021/09/13 08:18:06;;;;;;;24.00;12.07;;;22.60;47.00;;;;;;4200866;28;20070;-56
2021/09/13 08:20:08;;;;;;;28.35;13.15;;;22.60;46.90;;;;;;4200830;28;20045;-56
2021/09/13 08:22:11;;;;;;;21.10;11.93;;;22.60;47.00;;;;;;4201002;28;20080;-55
2021/09/13 08:24:13;;;;;;;21.13;13.98;;;22.60;47.10;;;;;;4201010;28;20052;-56
2021/09/13 08:26:16;;;;;;;22.70;11.85;;;22.60;47.50;;;;;;4183225;28;20088;-58
2021/09/13 08:28:23;;;;;;;20.13;12.68;;;22.70;47.30;;;;;;4200934;28;20041;-57
2021/09/13 08:30:26;;;;;;;29.17;15.57;;;22.70;48.10;;;;;;4200809;28;20075;-56
2021/09/13 08:32:28;;;;;;;31.58;17.33;;;22.80;47.70;;;;;;4200625;28;20067;-57
2021/09/13 08:34:30;;;;;;;28.63;19.13;;;22.80;48.20;;;;;;4200795;28;20045;-56
2021/09/13 08:36:32;;;;;;;38.13;21.23;;;22.80;48.50;;;;;;4201195;28;20104;-54
2021/09/13 08:38:34;;;;;;;23.52;17.13;;;22.80;48.60;;;;;;4200809;28;20049;-49
2021/09/13 08:40:36;;;;;;;21.90;15.32;;;22.80;48.00;;;;;;4200723;28;20063;-57
2021/09/13 08:42:50;;;;;;;20.52;15.70;;;22.70;47.50;;;;;;4200584;28;20049;-57
2021/09/13 08:44:55;;;;;;;21.67;14.85;;;22.80;48.40;;;;;;4200074;28;20037;-52
2021/09/13 08:47:05;;;;;;;19.67;14.35;;;22.90;48.10;;;;;;4200881;28;20124;-58
2021/09/13 08:49:12;;;;;;;21.60;15.55;;;22.90;48.60;;;;;;4200337;28;20041;-56
2021/09/13 08:53:23;;;;;;;19.75;14.63;;;22.90;48.40;;;;;;4200425;28;20053;-56
2021/09/13 08:55:26;;;;;;;20.55;14.70;;;22.90;48.30;;;;;;4200556;28;20112;-56
2021/09/13 08:57:31;;;;;;;22.02;13.32;;;22.90;48.30;;;;;;4201294;28;20041;-56
2021/09/13 08:59:39;;;;;;;24.42;12.35;;;22.90;47.60;;;;;;4201460;28;20075;-57
2021/09/13 09:01:42;;;;;;;19.98;11.05;;;22.90;47.40;;;;;;4201352;28;20064;-57
2021/09/13 09:03:45;;;;;;;20.75;12.43;;;22.90;47.00;;;;;;4201356;28;20442;-58
2021/09/13 09:05:50;;;;;;;20.33;10.55;;;22.90;47.50;;;;;;4201304;28;20041;-58
2021/09/13 09:07:54;;;;;;;20.95;11.73;;;22.90;46.70;;;;;;4201386;28;20041;-58
2021/09/13 09:10:17;;;;;;;21.27;12.05;;;22.90;47.10;;;;;;4201329;28;20041;-55
2021/09/13 09:12:19;;;;;;;14.85;10.32;;;23.00;46.60;;;;;;4201255;28;20071;-56
2021/09/13 09:14:34;;;;;;;15.50;10.57;;;23.00;46.10;;;;;;4201216;28;20047;-58
2021/09/13 09:16:37;;;;;;;;;;;23.00;46.90;;;;;;4201318;28;20091;-55
2021/09/13 09:18:40;;;;;;;15.80;9.77;;;23.00;46.30;;;;;;4201159;28;19924;-53
2021/09/13 09:20:42;;;;;;;20.45;10.07;;;23.00;45.80;;;;;;4201055;28;20071;-57
2021/09/13 09:22:45;;;;;;;17.23;9.25;;;23.00;45.10;;;;;;4200150;28;20043;-58
2021/09/13 09:24:49;;;;;;;15.60;10.20;;;23.00;45.70;;;;;;4201053;28;20037;-57
2021/09/13 09:27:03;;;;;;;17.27;10.27;;;23.00;45.10;;;;;;4200949;28;20051;-57
2021/09/13 09:29:06;;;;;;;14.15;11.20;;;23.00;46.80;;;;;;4200810;28;20056;-58
2021/09/13 09:31:07;;;;;;;21.52;12.18;;;22.90;46.90;;;;;;4200516;28;20075;-55
2021/09/13 09:33:19;;;;;;;19.88;12.25;;;23.00;47.10;;;;;;4200113;28;20041;-55
2021/09/13 09:35:21;;;;;;;15.40;11.55;;;23.00;46.70;;;;;;4199902;28;20075;-55
2021/09/13 09:37:25;;;;;;;16.38;10.02;;;23.00;46.50;;;;;;4200001;28;20101;-52
2021/09/13 09:39:33;;;;;;;17.20;10.60;;;23.00;45.80;;;;;;4199928;28;20049;-54
2021/09/13 09:41:41;;;;;;;21.55;10.15;;;23.00;46.40;;;;;;4199928;28;20045;-52
2021/09/13 09:43:57;;;;;;;13.07;9.70;;;23.00;46.00;;;;;;4199650;28;20037;-48
2021/09/13 09:45:59;;;;;;;20.02;10.23;;;23.00;45.80;;;;;;4199890;28;20064;-54
2021/09/13 09:48:09;;;;;;;21.08;9.90;;;23.00;46.00;;;;;;4200110;28;20041;-53
2021/09/13 09:50:12;;;;;;;14.77;9.38;;;23.00;45.80;;;;;;4200358;28;20052;-53
2021/09/13 09:52:39;;;;;;;11.95;9.00;;;23.00;45.10;;;;;;4200331;28;20093;-52
2021/09/13 09:54:41;;;;;;;20.35;10.32;;;23.00;45.80;;;;;;4199665;28;20060;-57
2021/09/13 09:56:47;;;;;;;17.92;10.02;;;23.00;46.80;;;;;;4199565;28;20041;-57
2021/09/13 09:59:05;;;;;;;15.82;9.70;;;23.10;47.20;;;;;;4199636;28;20037;-57
2021/09/13 10:01:07;;;;;;;15.20;9.30;;;23.10;46.90;;;;;;4200503;28;20104;-55
2021/09/13 10:03:09;;;;;;;14.48;10.43;;;23.10;46.00;;;;;;4200381;28;20048;-55
2021/09/13 10:05:12;;;;;;;14.82;9.20;;;23.10;47.20;;;;;;4200380;28;20041;-55
2021/09/13 10:07:16;;;;;;;15.30;9.18;;;23.10;45.80;;;;;;4200357;28;20064;-56
2021/09/13 10:09:20;;;;;;;15.20;9.10;;;23.10;46.50;;;;;;4200122;28;20092;-54
2021/09/13 10:11:22;;;;;;;13.82;9.85;;;23.10;46.90;;;;;;4200197;28;20060;-58
2021/09/13 10:13:24;;;;;;;13.60;9.07;;;23.10;46.40;;;;;;4200148;28;20051;-58
2021/09/13 10:15:28;;;;;;;14.50;8.82;;;23.10;47.10;;;;;;4200103;28;20096;-55
2021/09/13 10:17:35;;;;;;;21.38;10.75;;;23.10;45.70;;;;;;4198778;28;20044;-57
2021/09/13 10:19:37;;;;;;;16.92;9.07;;;23.10;45.70;;;;;;4198643;28;20056;-56
2021/09/13 10:21:40;;;;;;;13.30;9.23;;;23.20;46.00;;;;;;4199415;28;20041;-56
2021/09/13 10:23:44;;;;;;;19.10;9.32;;;23.20;46.30;;;;;;4199400;28;20053;-56
2021/09/13 10:25:46;;;;;;;16.17;9.15;;;23.10;46.30;;;;;;4199724;28;20047;-57
2021/09/13 10:27:48;;;;;;;18.52;9.23;;;23.10;45.60;;;;;;4199572;28;20041;-54
2021/09/13 10:30:11;;;;;;;13.00;8.63;;;23.10;46.40;;;;;;4198708;28;20045;-56
2021/09/13 10:32:15;;;;;;;18.83;8.57;;;23.10;45.20;;;;;;4198355;28;20043;-54
2021/09/13 10:34:24;;;;;;;13.95;8.50;;;23.10;46.40;;;;;;4199454;28;20075;-57
2021/09/13 10:37:04;;;;;;;13.27;7.82;;;23.20;45.90;;;;;;4197397;28;20055;-58
2021/09/13 10:39:08;;;;;;;14.13;8.43;;;23.10;44.70;;;;;;4197624;28;20057;-59